Ana Sayfa
METAR-TAF:

METAR-TAF

Havaalanları :

Leesburg, Virginia, Amerika Birleşik Devletleri

Enlem: 39-05N, Boylam: 077-34W, yükseklik: 119 m

Güncel hava durumu gözlemi

Rapor saat 16:15 UTC de 21 dakika önce yapıldı.
Rüzgar güney/güneybatıdan 3 kt
Sıcaklık 30°C
Nem 66%
Basınç 1015 hPa
12000 ft yükseklikte parçalı bulutlu

METAR: KJYO 211615Z AUTO 21003KT SCT120 30/23 A2997 RMK AO2

Saat: 12:36 (16:36 UTC)


TAF: eksik

4.000'den fazla havaalanı için hava durumu gözlemleri ve tahminleri (METAR ve TAF raporları).

Kullanılabilir istasyonlar harita üzerinde sarı ve kırmızı noktalarla gösterilir.

İstasyonun adını görmek için fareyi noktanın üzerinde gezdirin.

Sonrasında hava gözlem ve tahminlerini görmek için tıklayın.

Haritayı değiştirmek için: yaklaştırmak için siyah artı işaretli yeşil düğmeye ve uzaklaştırmak için de eksi işaretli düğmeye hızla tıklayın; bitişik haritalar için yeşil okları kullanın.


METAR-TAF: